createdAt,value
2019-02-19T00:00:12.399Z,59.20
2019-02-19T00:01:12.387Z,59.41
2019-02-19T00:02:12.417Z,59.61
2019-02-19T00:03:12.366Z,59.41
2019-02-19T00:04:12.349Z,59.00
2019-02-19T00:05:12.341Z,59.00
2019-02-19T00:06:12.326Z,59.00
2019-02-19T00:07:12.315Z,59.00
2019-02-19T00:08:12.321Z,59.30
2019-02-19T00:09:12.289Z,59.30
2019-02-19T00:10:12.279Z,59.09
2019-02-19T00:11:12.267Z,59.12
2019-02-19T00:12:12.258Z,59.09
2019-02-19T00:13:12.284Z,59.00
2019-02-19T00:14:12.231Z,59.00
2019-02-19T00:15:12.220Z,59.09
2019-02-19T00:16:12.243Z,59.12
2019-02-19T00:17:12.203Z,59.50
2019-02-19T00:18:12.203Z,59.23
2019-02-19T00:19:12.194Z,59.53
2019-02-19T00:20:12.163Z,59.53
2019-02-19T00:21:12.153Z,59.30
2019-02-19T00:22:12.142Z,59.41
2019-02-19T00:23:12.153Z,59.94
2019-02-19T00:24:12.119Z,59.94
2019-02-19T00:25:12.140Z,59.53
2019-02-19T00:26:12.092Z,59.81
2019-02-19T00:27:12.081Z,59.94
2019-02-19T00:28:12.069Z,59.77
2019-02-19T00:29:12.833Z,60.89
2019-02-19T00:30:12.046Z,60.49
2019-02-19T00:31:12.035Z,60.79
2019-02-19T00:32:12.032Z,61.07
2019-02-19T00:33:12.012Z,60.17
2019-02-19T00:34:12.058Z,60.15
2019-02-19T00:35:11.988Z,60.35
2019-02-19T00:36:11.976Z,60.15
2019-02-19T00:37:11.967Z,60.35
2019-02-19T00:38:11.954Z,60.35
2019-02-19T00:39:11.968Z,61.00
2019-02-19T00:40:11.929Z,60.79
2019-02-19T00:41:11.919Z,60.38
2019-02-19T00:42:11.911Z,60.89
2019-02-19T00:43:11.896Z,61.10
2019-02-19T00:44:11.904Z,60.89
2019-02-19T00:45:16.652Z,61.20
2019-02-19T00:46:11.860Z,61.20
2019-02-19T00:47:11.849Z,60.79
2019-02-19T00:48:11.836Z,60.97
2019-02-19T00:49:11.824Z,60.66
2019-02-19T00:50:11.831Z,60.69
2019-02-19T00:51:11.802Z,60.58
2019-02-19T00:52:11.790Z,60.69
2019-02-19T00:53:11.776Z,60.69
2019-02-19T00:54:11.785Z,60.38
2019-02-19T00:55:11.795Z,60.79
2019-02-19T00:56:11.743Z,60.35
2019-02-19T00:57:11.731Z,60.89
2019-02-19T00:58:11.720Z,60.97
2019-02-19T00:59:11.709Z,60.58
2019-02-19T01:00:11.699Z,60.79
2019-02-19T01:01:11.708Z,60.69
2019-02-19T01:02:11.707Z,60.79
2019-02-19T01:03:11.662Z,61.33
2019-02-19T01:04:11.653Z,61.30
2019-02-19T01:05:11.641Z,61.23
2019-02-19T01:06:11.647Z,61.13
2019-02-19T01:07:11.619Z,61.74
2019-02-19T01:08:11.605Z,61.74
2019-02-19T01:09:11.595Z,61.85
2019-02-19T01:10:11.583Z,61.85
2019-02-19T01:11:11.594Z,61.85
2019-02-19T01:12:11.560Z,61.87
2019-02-19T01:13:11.549Z,61.85
2019-02-19T01:14:11.536Z,61.95
2019-02-19T01:15:11.525Z,62.39
2019-02-19T01:16:11.518Z,61.67
2019-02-19T01:17:11.523Z,62.08
2019-02-19T01:18:11.492Z,61.98
2019-02-19T01:19:11.479Z,62.90
2019-02-19T01:20:11.467Z,62.49
2019-02-19T01:21:11.542Z,62.80
2019-02-19T01:22:11.462Z,62.49
2019-02-19T01:23:11.433Z,62.29
2019-02-19T01:24:11.422Z,62.29
2019-02-19T01:25:11.411Z,62.31
2019-02-19T01:26:11.399Z,62.21
2019-02-19T01:27:11.406Z,61.87
2019-02-19T01:28:11.376Z,61.77
2019-02-19T01:29:11.367Z,62.18
2019-02-19T01:30:11.351Z,61.57
2019-02-19T01:31:11.340Z,61.87
2019-02-19T01:32:11.348Z,61.87
2019-02-19T01:33:11.318Z,61.57
2019-02-19T01:34:11.306Z,62.39
2019-02-19T01:35:11.295Z,62.39
2019-02-19T01:36:11.282Z,62.29
2019-02-19T01:37:11.293Z,62.41
2019-02-19T01:38:11.262Z,62.29
2019-02-19T01:39:11.255Z,63.00
2019-02-19T01:40:11.234Z,62.59
2019-02-19T01:41:11.225Z,62.49
2019-02-19T01:42:11.241Z,62.59
2019-02-19T01:43:11.203Z,63.10
2019-02-19T01:44:11.188Z,62.70
2019-02-19T01:45:11.176Z,62.80
2019-02-19T01:46:11.166Z,62.70
2019-02-19T01:47:11.172Z,62.80
2019-02-19T01:48:11.141Z,63.00
2019-02-19T01:49:11.129Z,63.10
2019-02-19T01:50:11.117Z,63.00
2019-02-19T01:51:11.107Z,63.00
2019-02-19T01:52:11.113Z,63.31
2019-02-19T01:53:11.083Z,63.31
2019-02-19T01:54:11.072Z,63.31
2019-02-19T01:55:11.057Z,63.24
2019-02-19T01:56:11.045Z,62.90
2019-02-19T01:57:11.079Z,63.85
2019-02-19T01:58:11.023Z,63.82
2019-02-19T01:59:11.011Z,63.34
2019-02-19T02:00:10.997Z,63.54
2019-02-19T02:01:10.985Z,63.54
2019-02-19T02:02:10.974Z,63.62
2019-02-19T02:03:10.983Z,63.85
2019-02-19T02:04:10.952Z,64.26
2019-02-19T02:05:10.941Z,65.09
2019-02-19T02:06:10.931Z,64.57
2019-02-19T02:07:10.915Z,64.88
2019-02-19T02:08:10.921Z,64.88
2019-02-19T02:09:10.897Z,65.09
2019-02-19T02:10:10.879Z,65.32
2019-02-19T02:11:10.868Z,65.19
2019-02-19T02:12:10.856Z,65.50
2019-02-19T02:13:10.887Z,65.63
2019-02-19T02:14:10.833Z,65.70
2019-02-19T02:15:10.819Z,65.42
2019-02-19T02:16:10.809Z,65.83
2019-02-19T02:17:10.796Z,65.83
2019-02-19T02:18:10.785Z,66.14
2019-02-19T02:19:10.792Z,66.35
2019-02-19T02:20:10.763Z,66.11
2019-02-19T02:21:10.753Z,66.45
2019-02-19T02:22:10.738Z,66.22
2019-02-19T02:23:10.725Z,65.80
2019-02-19T02:24:10.734Z,65.91
2019-02-19T02:25:10.703Z,66.01
2019-02-19T02:26:10.690Z,65.80
2019-02-19T02:27:10.680Z,66.01
2019-02-19T02:28:10.667Z,65.80
2019-02-19T02:29:10.674Z,65.60
2019-02-19T02:30:10.645Z,65.36
2019-02-19T02:31:10.632Z,65.80
2019-02-19T02:32:10.625Z,65.98
2019-02-19T02:33:10.615Z,66.11
2019-02-19T02:34:10.619Z,65.91
2019-02-19T02:35:11.406Z,66.52
2019-02-19T02:36:10.576Z,66.80
2019-02-19T02:37:10.560Z,66.49
2019-02-19T02:38:10.554Z,66.90
2019-02-19T02:39:10.537Z,66.93
2019-02-19T02:40:10.557Z,66.80
2019-02-19T02:41:10.515Z,66.80
2019-02-19T02:42:17.544Z,66.63
2019-02-19T02:43:10.492Z,67.11
2019-02-19T02:44:10.478Z,66.93
2019-02-19T02:45:10.487Z,67.14
2019-02-19T02:46:10.479Z,67.21
2019-02-19T02:47:10.448Z,66.90
2019-02-19T02:48:10.438Z,67.00
2019-02-19T02:49:10.425Z,67.21
2019-02-19T02:50:10.427Z,67.52
2019-02-19T02:51:10.399Z,67.44
2019-02-19T02:52:10.401Z,67.76
2019-02-19T02:53:10.375Z,67.72
2019-02-19T02:54:10.365Z,67.55
2019-02-19T02:55:10.376Z,67.86
2019-02-19T02:56:10.343Z,67.72
2019-02-19T02:57:10.329Z,67.83
2019-02-19T02:58:10.324Z,68.03
2019-02-19T02:59:10.309Z,68.24
2019-02-19T03:00:10.320Z,68.48
2019-02-19T03:01:10.284Z,68.57
2019-02-19T03:02:10.281Z,68.65
2019-02-19T03:03:10.264Z,68.75
2019-02-19T03:04:10.251Z,68.96
2019-02-19T03:05:10.259Z,68.99
2019-02-19T03:06:10.230Z,68.75
2019-02-19T03:07:10.216Z,69.29
2019-02-19T03:08:10.203Z,69.09
2019-02-19T03:09:10.192Z,70.32
2019-02-19T03:10:10.202Z,70.53
2019-02-19T03:11:10.173Z,70.84
2019-02-19T03:12:10.159Z,71.14
2019-02-19T03:13:10.146Z,70.73
2019-02-19T03:14:10.136Z,70.94
2019-02-19T03:15:10.163Z,70.94
2019-02-19T03:16:10.112Z,71.45
2019-02-19T03:17:10.101Z,71.59
2019-02-19T03:18:10.098Z,71.66
2019-02-19T03:19:10.080Z,71.48
2019-02-19T03:20:10.064Z,71.28
2019-02-19T03:21:10.073Z,72.17
2019-02-19T03:22:10.043Z,72.00
2019-02-19T03:23:10.036Z,72.10
2019-02-19T03:24:10.021Z,72.41
2019-02-19T03:25:10.049Z,72.72
2019-02-19T03:26:10.005Z,72.82
2019-02-19T03:27:09.997Z,72.61
2019-02-19T03:28:09.985Z,72.92
2019-02-19T03:29:09.960Z,73.13
2019-02-19T03:30:09.953Z,73.02
2019-02-19T03:31:09.988Z,72.92
2019-02-19T03:32:09.925Z,73.23
2019-02-19T03:33:09.972Z,73.23
2019-02-19T03:34:09.919Z,74.12
2019-02-19T03:35:09.894Z,74.15
2019-02-19T03:36:09.879Z,74.05
2019-02-19T03:37:09.884Z,74.15
2019-02-19T03:38:09.900Z,74.05
2019-02-19T03:39:09.841Z,73.44
2019-02-19T03:40:09.866Z,74.05
2019-02-19T03:41:09.818Z,73.13
2019-02-19T03:42:09.826Z,73.85
2019-02-19T03:43:09.794Z,73.74
2019-02-19T03:44:09.782Z,73.74
2019-02-19T03:45:09.783Z,73.95
2019-02-19T03:46:12.400Z,74.05
2019-02-19T03:47:09.767Z,74.05
2019-02-19T03:48:09.736Z,73.95
2019-02-19T03:49:09.723Z,74.26
2019-02-19T03:50:09.710Z,74.05
2019-02-19T03:51:09.699Z,73.95
2019-02-19T03:52:09.709Z,73.98
2019-02-19T03:53:09.695Z,73.98
2019-02-19T03:54:09.664Z,73.74
2019-02-19T03:55:09.656Z,74.19
2019-02-19T03:56:09.640Z,74.50
2019-02-19T03:57:09.652Z,75.12
2019-02-19T03:58:09.618Z,75.93
2019-02-19T03:59:09.605Z,76.35
2019-02-19T04:00:09.592Z,76.65
2019-02-19T04:01:09.583Z,77.13
2019-02-19T04:02:09.569Z,77.37
2019-02-19T04:03:09.577Z,77.00
2019-02-19T04:04:09.551Z,77.48
2019-02-19T04:05:09.536Z,77.68
2019-02-19T04:06:09.523Z,77.37
2019-02-19T04:07:09.530Z,77.68
2019-02-19T04:08:09.522Z,77.68
2019-02-19T04:09:09.488Z,77.51
2019-02-19T04:10:09.476Z,78.44
2019-02-19T04:11:09.461Z,78.33
2019-02-19T04:12:09.468Z,78.23
2019-02-19T04:13:09.438Z,78.54
2019-02-19T04:14:09.428Z,78.23
2019-02-19T04:15:09.414Z,78.64
2019-02-19T04:16:09.404Z,78.85
2019-02-19T04:17:09.415Z,78.13
2019-02-19T04:18:09.381Z,79.16
2019-02-19T04:19:09.367Z,79.36
2019-02-19T04:20:09.354Z,78.33
2019-02-19T04:21:09.344Z,78.75
2019-02-19T04:22:09.360Z,78.99
2019-02-19T04:23:09.330Z,78.89
2019-02-19T04:24:09.308Z,78.64
2019-02-19T04:25:09.295Z,79.26
2019-02-19T04:26:09.285Z,79.30
2019-02-19T04:27:09.274Z,79.71
2019-02-19T04:28:09.279Z,79.09
2019-02-19T04:29:09.249Z,80.43
2019-02-19T04:30:09.237Z,80.53
2019-02-19T04:31:09.226Z,80.74
2019-02-19T04:32:09.232Z,79.98
2019-02-19T04:33:09.208Z,80.74
2019-02-19T04:34:09.188Z,80.94
2019-02-19T04:35:09.196Z,80.84
2019-02-19T04:36:09.170Z,81.15
2019-02-19T04:37:09.198Z,81.05
2019-02-19T04:38:09.142Z,81.76
2019-02-19T04:39:09.132Z,82.18
2019-02-19T04:40:09.126Z,82.39
2019-02-19T04:41:09.108Z,81.91
2019-02-19T04:42:09.095Z,82.07
2019-02-19T04:43:09.104Z,81.87
2019-02-19T04:44:09.082Z,82.39
2019-02-19T04:45:09.066Z,82.21
2019-02-19T04:46:09.047Z,82.01
2019-02-19T04:47:09.034Z,81.81
2019-02-19T04:48:09.041Z,82.32
2019-02-19T04:49:09.012Z,82.63
2019-02-19T04:50:08.998Z,82.53
2019-02-19T04:51:08.986Z,82.32
2019-02-19T04:52:09.006Z,82.21
2019-02-19T04:53:08.981Z,82.83
2019-02-19T04:54:08.950Z,82.93
2019-02-19T04:55:08.943Z,82.63
2019-02-19T04:56:08.929Z,82.53
2019-02-19T04:57:08.916Z,82.15
2019-02-19T04:58:08.922Z,82.73
2019-02-19T04:59:08.916Z,82.53
2019-02-19T05:00:08.881Z,83.04
2019-02-19T05:01:08.877Z,82.87
2019-02-19T05:02:08.858Z,82.53
2019-02-19T05:03:08.868Z,82.73
2019-02-19T05:04:08.835Z,81.91
2019-02-19T05:05:08.864Z,82.42
2019-02-19T05:06:08.817Z,82.42
2019-02-19T05:07:08.823Z,82.53
2019-02-19T05:08:08.811Z,82.21
2019-02-19T05:09:08.776Z,82.42
2019-02-19T05:10:08.763Z,82.01
2019-02-19T05:11:08.754Z,82.32
2019-02-19T05:12:08.744Z,81.91
2019-02-19T05:13:08.732Z,82.42
2019-02-19T05:14:08.762Z,82.42
2019-02-19T05:15:08.706Z,82.07
2019-02-19T05:16:08.696Z,81.70
2019-02-19T05:17:08.700Z,81.81
2019-02-19T05:18:08.670Z,82.01
2019-02-19T05:19:08.728Z,82.11
2019-02-19T05:20:08.652Z,82.11
2019-02-19T05:21:08.637Z,82.28
2019-02-19T05:22:08.623Z,82.32
2019-02-19T05:23:08.611Z,81.56
2019-02-19T05:24:08.600Z,81.49
2019-02-19T05:25:08.607Z,81.70
2019-02-19T05:26:08.576Z,81.91
2019-02-19T05:27:08.564Z,81.76
2019-02-19T05:28:08.552Z,81.76
2019-02-19T05:29:08.541Z,81.46
2019-02-19T05:30:08.548Z,81.87
2019-02-19T05:31:08.518Z,81.76
2019-02-19T05:32:08.520Z,81.97
2019-02-19T05:33:08.496Z,81.87
2019-02-19T05:34:08.480Z,81.76
2019-02-19T05:35:08.490Z,81.70
2019-02-19T05:36:09.152Z,81.76
2019-02-19T05:37:08.447Z,82.32
2019-02-19T05:38:08.433Z,82.21
2019-02-19T05:39:08.428Z,82.53
2019-02-19T05:40:08.464Z,82.63
2019-02-19T05:41:08.406Z,82.59
2019-02-19T05:42:08.388Z,82.63
2019-02-19T05:43:08.379Z,82.59
2019-02-19T05:44:08.375Z,82.39
2019-02-19T05:45:08.389Z,82.21
2019-02-19T05:46:08.343Z,82.73
2019-02-19T05:47:08.331Z,82.42
2019-02-19T05:48:08.321Z,82.53
2019-02-19T05:49:08.312Z,82.39
2019-02-19T05:50:08.318Z,82.18
2019-02-19T05:51:08.293Z,82.73
2019-02-19T05:52:08.271Z,82.59
2019-02-19T05:53:08.267Z,82.42
2019-02-19T05:54:08.253Z,82.21
2019-02-19T05:55:08.281Z,82.18
2019-02-19T05:56:08.227Z,82.28
2019-02-19T05:57:08.218Z,82.42
2019-02-19T05:58:08.206Z,82.63
2019-02-19T05:59:08.201Z,82.63
2019-02-19T06:00:08.181Z,82.73
2019-02-19T06:01:08.189Z,82.73
2019-02-19T06:02:08.173Z,82.69
2019-02-19T06:03:08.148Z,82.48
2019-02-19T06:04:08.151Z,82.11
2019-02-19T06:05:08.127Z,82.73
2019-02-19T06:06:08.133Z,82.63
2019-02-19T06:07:08.102Z,82.69
2019-02-19T06:08:08.092Z,83.00
2019-02-19T06:09:08.088Z,82.73
2019-02-19T06:10:08.072Z,82.83
2019-02-19T06:11:08.084Z,82.93
2019-02-19T06:12:08.048Z,82.93
2019-02-19T06:13:08.038Z,82.90
2019-02-19T06:14:08.024Z,82.90
2019-02-19T06:15:08.012Z,83.11
2019-02-19T06:16:08.003Z,83.11
2019-02-19T06:17:08.021Z,83.04
2019-02-19T06:18:07.977Z,83.04
2019-02-19T06:19:07.966Z,83.00
2019-02-19T06:20:07.954Z,83.35
2019-02-19T06:21:07.945Z,82.93
2019-02-19T06:22:07.957Z,83.25
2019-02-19T06:23:07.917Z,83.20
2019-02-19T06:24:07.909Z,83.11
2019-02-19T06:25:07.898Z,82.90
2019-02-19T06:26:07.885Z,83.00
2019-02-19T06:27:07.874Z,83.31
2019-02-19T06:28:07.877Z,83.11
2019-02-19T06:29:07.884Z,83.41
2019-02-19T06:30:07.839Z,83.55
2019-02-19T06:31:07.825Z,83.51
2019-02-19T06:32:07.814Z,83.45
2019-02-19T06:33:07.822Z,83.35
2019-02-19T06:34:07.789Z,83.62
2019-02-19T06:35:07.782Z,83.51
2019-02-19T06:36:07.768Z,83.72
2019-02-19T06:37:07.755Z,83.20
2019-02-19T06:38:07.761Z,83.62
2019-02-19T06:39:07.738Z,83.14
2019-02-19T06:40:07.717Z,83.55
2019-02-19T06:41:07.714Z,83.35
2019-02-19T06:42:07.696Z,83.11
2019-02-19T06:43:07.708Z,83.25
2019-02-19T06:44:07.673Z,83.14
2019-02-19T06:45:07.661Z,83.41
2019-02-19T06:46:07.647Z,83.00
2019-02-19T06:47:07.658Z,83.41
2019-02-19T06:48:07.646Z,83.25
2019-02-19T06:49:07.616Z,83.45
2019-02-19T06:50:07.602Z,83.11
2019-02-19T06:51:07.593Z,83.41
2019-02-19T06:52:07.579Z,83.45
2019-02-19T06:53:07.643Z,83.35
2019-02-19T06:54:07.558Z,83.45
2019-02-19T06:55:07.556Z,83.45
2019-02-19T06:56:07.535Z,83.25
2019-02-19T06:57:07.524Z,83.65
2019-02-19T06:58:07.538Z,83.04
2019-02-19T06:59:07.502Z,83.55
2019-02-19T07:00:07.490Z,83.72
2019-02-19T07:01:07.481Z,83.55
2019-02-19T07:02:07.465Z,83.76
2019-02-19T07:03:07.482Z,83.97
2019-02-19T07:04:07.443Z,83.76
2019-02-19T07:05:07.432Z,83.04
2019-02-19T07:06:07.419Z,83.20
2019-02-19T07:07:07.412Z,83.55
2019-02-19T07:08:07.417Z,83.04
2019-02-19T07:09:07.386Z,83.14
2019-02-19T07:10:07.374Z,82.93
2019-02-19T07:11:07.406Z,82.59
2019-02-19T07:12:07.355Z,82.39
2019-02-19T07:13:07.359Z,82.42
2019-02-19T07:14:07.328Z,82.48
2019-02-19T07:15:07.323Z,82.42
2019-02-19T07:16:07.306Z,82.48
2019-02-19T07:17:15.297Z,82.18
2019-02-19T07:18:08.349Z,82.07
2019-02-19T07:19:07.272Z,81.87
2019-02-19T07:20:07.264Z,81.87
2019-02-19T07:21:07.262Z,81.97
2019-02-19T07:22:07.237Z,82.14
2019-02-19T07:23:07.246Z,81.93
2019-02-19T07:24:07.214Z,81.76
2019-02-19T07:25:07.204Z,81.25
2019-02-19T07:26:07.195Z,81.73
2019-02-19T07:27:07.183Z,81.32
2019-02-19T07:28:07.193Z,81.01
2019-02-19T07:29:07.156Z,80.80
2019-02-19T07:30:07.145Z,80.80
2019-02-19T07:31:07.154Z,80.80
2019-02-19T07:32:07.124Z,80.91
2019-02-19T07:33:07.137Z,80.70
2019-02-19T07:34:07.117Z,80.29
2019-02-19T07:35:07.126Z,80.08
2019-02-19T07:36:07.074Z,80.91
2019-02-19T07:37:07.068Z,80.39
2019-02-19T07:38:07.052Z,80.39
2019-02-19T07:39:07.059Z,80.29
2019-02-19T07:40:07.037Z,80.39
2019-02-19T07:41:07.023Z,80.60
2019-02-19T07:42:07.007Z,80.39
2019-02-19T07:43:06.998Z,80.63
2019-02-19T07:44:07.004Z,80.60
2019-02-19T07:45:06.971Z,80.19
2019-02-19T07:46:06.959Z,80.19
2019-02-19T07:47:06.947Z,80.29
2019-02-19T07:48:06.940Z,79.26
2019-02-19T07:49:06.923Z,79.77
2019-02-19T07:50:06.931Z,79.98
2019-02-19T07:51:06.899Z,80.08
2019-02-19T07:52:06.889Z,80.49
2019-02-19T07:53:06.876Z,80.12
2019-02-19T07:54:06.867Z,80.49
2019-02-19T07:55:06.878Z,80.43
2019-02-19T07:56:06.844Z,79.98
2019-02-19T07:57:06.827Z,80.43
2019-02-19T07:58:06.818Z,80.19
2019-02-19T07:59:06.804Z,80.19
2019-02-19T08:00:06.793Z,80.53
2019-02-19T08:01:06.800Z,80.49
2019-02-19T08:02:06.775Z,80.19
2019-02-19T08:03:06.760Z,80.63
2019-02-19T08:04:06.749Z,78.16
2019-02-19T08:05:06.735Z,78.36
2019-02-19T08:06:06.742Z,77.78
2019-02-19T08:07:06.711Z,78.09
2019-02-19T08:08:06.700Z,78.71
2019-02-19T08:09:06.687Z,78.92
2019-02-19T08:10:06.676Z,79.33
2019-02-19T08:11:06.682Z,78.92
2019-02-19T08:12:06.652Z,79.12
2019-02-19T08:13:06.641Z,78.16
2019-02-19T08:14:06.628Z,78.36
2019-02-19T08:15:06.628Z,78.09
2019-02-19T08:16:06.625Z,78.30
2019-02-19T08:17:06.594Z,78.40
2019-02-19T08:18:06.589Z,78.61
2019-02-19T08:19:06.571Z,78.36
2019-02-19T08:20:13.437Z,78.16
2019-02-19T08:21:07.564Z,78.30
2019-02-19T08:22:06.535Z,78.16
2019-02-19T08:23:06.525Z,77.65
2019-02-19T08:24:06.514Z,77.99
2019-02-19T08:25:06.500Z,77.85
2019-02-19T08:26:06.510Z,77.65
2019-02-19T08:27:06.480Z,78.16
2019-02-19T08:28:06.467Z,77.58
2019-02-19T08:29:13.440Z,77.78
2019-02-19T08:30:07.442Z,78.20
2019-02-19T08:31:06.454Z,78.33
2019-02-19T08:32:06.419Z,78.50
2019-02-19T08:33:06.409Z,79.26
2019-02-19T08:34:06.396Z,78.75
2019-02-19T08:35:06.387Z,78.64
2019-02-19T08:36:06.374Z,78.44
2019-02-19T08:37:06.383Z,78.54
2019-02-19T08:38:06.438Z,78.75
2019-02-19T08:39:06.338Z,79.05
2019-02-19T08:40:06.326Z,79.26
2019-02-19T08:41:06.315Z,79.16
2019-02-19T08:42:06.323Z,78.71
2019-02-19T08:43:06.290Z,78.30
2019-02-19T08:44:06.284Z,78.23
2019-02-19T08:45:06.268Z,79.47
2019-02-19T08:46:06.254Z,78.85
2019-02-19T08:47:06.245Z,78.23
2019-02-19T08:48:06.248Z,78.30
2019-02-19T08:49:06.219Z,78.23
2019-02-19T08:50:06.207Z,77.03
2019-02-19T08:51:06.199Z,74.15
2019-02-19T08:52:06.186Z,68.50
2019-02-19T08:53:06.190Z,67.58
2019-02-19T08:54:06.160Z,66.22
2019-02-19T08:55:06.152Z,62.54
2019-02-19T08:56:06.138Z,62.30
2019-02-19T08:57:06.126Z,59.92
2019-02-19T08:58:06.142Z,58.81
2019-02-19T08:59:06.106Z,61.29
2019-02-19T09:00:06.091Z,60.95
2019-02-19T09:01:06.082Z,58.63
2019-02-19T09:02:06.070Z,56.95
2019-02-19T09:03:06.057Z,56.49
2019-02-19T09:04:06.065Z,54.49
2019-02-19T09:05:06.039Z,52.31
2019-02-19T09:06:06.021Z,52.74
2019-02-19T09:07:06.011Z,51.57
2019-02-19T09:08:06.022Z,50.64
2019-02-19T09:09:05.988Z,51.68
2019-02-19T09:10:05.976Z,51.48
2019-02-19T09:11:05.965Z,50.54
2019-02-19T09:12:05.957Z,50.14
2019-02-19T09:13:05.942Z,49.98
2019-02-19T09:14:05.949Z,52.18
2019-02-19T09:15:05.918Z,54.77
2019-02-19T09:16:05.907Z,55.43
2019-02-19T09:17:05.898Z,53.42
2019-02-19T09:18:05.913Z,53.52
2019-02-19T09:19:05.873Z,54.28
2019-02-19T09:20:05.862Z,54.08
2019-02-19T09:21:05.851Z,53.58
2019-02-19T09:22:05.839Z,52.03
2019-02-19T09:23:05.829Z,52.41
2019-02-19T09:24:09.422Z,54.24
2019-02-19T09:25:05.804Z,52.46
2019-02-19T09:26:05.793Z,51.98
2019-02-19T09:27:05.784Z,54.16
2019-02-19T09:28:05.770Z,57.00
2019-02-19T09:29:05.782Z,53.37
2019-02-19T09:30:05.753Z,50.24
2019-02-19T09:31:05.741Z,49.08
2019-02-19T09:32:05.727Z,50.16
2019-02-19T09:33:05.713Z,48.35
2019-02-19T09:34:05.721Z,46.79
2019-02-19T09:35:05.691Z,46.49
2019-02-19T09:36:05.679Z,46.39
2019-02-19T09:37:05.667Z,46.14
2019-02-19T09:38:05.654Z,44.61
2019-02-19T09:39:05.667Z,45.64
2019-02-19T09:40:05.632Z,44.19
2019-02-19T09:41:05.621Z,44.15
2019-02-19T09:42:05.613Z,45.78
2019-02-19T09:43:05.598Z,46.51
2019-02-19T09:44:05.609Z,45.86
2019-02-19T09:45:05.574Z,45.54
2019-02-19T09:46:05.566Z,44.79
2019-02-19T09:47:05.552Z,43.46
2019-02-19T09:48:05.542Z,45.01
2019-02-19T09:49:05.549Z,44.57
2019-02-19T09:50:05.521Z,44.83
2019-02-19T09:51:05.506Z,44.13
2019-02-19T09:52:05.501Z,46.78
2019-02-19T09:53:05.485Z,49.52
2019-02-19T09:54:05.967Z,50.34
2019-02-19T09:55:05.462Z,46.76
2019-02-19T09:56:05.450Z,45.83
2019-02-19T09:57:05.438Z,46.86
2019-02-19T09:58:05.428Z,46.86
2019-02-19T09:59:05.415Z,48.34
2019-02-19T10:00:05.422Z,49.75
2019-02-19T10:01:05.397Z,51.88
2019-02-19T10:02:05.387Z,49.58
2019-02-19T10:03:05.371Z,47.91
2019-02-19T10:04:05.359Z,48.16
2019-02-19T10:05:05.367Z,49.30
2019-02-19T10:06:05.336Z,47.49
2019-02-19T10:07:05.322Z,44.37
2019-02-19T10:08:05.311Z,46.45
2019-02-19T10:09:05.300Z,48.11
2019-02-19T10:10:05.329Z,49.22
2019-02-19T10:11:05.276Z,49.32
2019-02-19T10:12:05.266Z,48.19
2019-02-19T10:13:05.252Z,47.03
2019-02-19T10:14:05.242Z,49.22
2019-02-19T10:15:05.230Z,49.73
2019-02-19T10:16:05.238Z,50.08
2019-02-19T10:17:05.208Z,50.89
2019-02-19T10:18:10.284Z,49.80
2019-02-19T10:19:06.184Z,48.28
2019-02-19T10:20:05.171Z,49.87
2019-02-19T10:21:05.179Z,51.65
2019-02-19T10:22:05.153Z,51.79
2019-02-19T10:23:05.137Z,51.77
2019-02-19T10:24:05.132Z,49.60
2019-02-19T10:25:05.114Z,46.40
2019-02-19T10:26:05.126Z,46.98
2019-02-19T10:27:05.095Z,44.87
2019-02-19T10:28:05.107Z,43.02
2019-02-19T10:29:05.067Z,44.27
2019-02-19T10:30:05.056Z,44.74
2019-02-19T10:31:05.045Z,46.48
2019-02-19T10:32:06.006Z,46.07
2019-02-19T10:33:05.023Z,45.42
2019-02-19T10:34:05.014Z,45.37
2019-02-19T10:35:04.997Z,45.06
2019-02-19T10:36:05.977Z,43.97
2019-02-19T10:37:04.976Z,43.14
2019-02-19T10:38:05.129Z,44.98
2019-02-19T10:39:04.952Z,47.05
2019-02-19T10:40:04.967Z,44.31
2019-02-19T10:41:04.928Z,43.16
2019-02-19T10:42:04.937Z,42.38
2019-02-19T10:43:04.907Z,41.45
2019-02-19T10:44:04.894Z,43.60
2019-02-19T10:45:04.883Z,46.34
2019-02-19T10:46:04.874Z,45.87
2019-02-19T10:47:04.878Z,43.44
2019-02-19T10:48:04.853Z,42.78
2019-02-19T10:49:04.842Z,42.24
2019-02-19T10:50:04.825Z,44.34
2019-02-19T10:51:04.816Z,46.04
2019-02-19T10:52:04.823Z,49.22
2019-02-19T10:53:04.794Z,46.42
2019-02-19T10:54:04.783Z,47.15
2019-02-19T10:55:04.772Z,48.00
2019-02-19T10:56:04.762Z,49.85
2019-02-19T10:57:04.771Z,48.43
2019-02-19T10:58:04.736Z,49.27
2019-02-19T10:59:04.728Z,46.32
2019-02-19T11:00:04.718Z,45.79
2019-02-19T11:01:04.701Z,47.15
2019-02-19T11:02:04.711Z,45.97
2019-02-19T11:03:04.679Z,43.04
2019-02-19T11:04:04.667Z,43.59
2019-02-19T11:05:04.655Z,44.21
2019-02-19T11:06:04.642Z,42.66
2019-02-19T11:07:04.653Z,44.68
2019-02-19T11:08:04.621Z,43.79
2019-02-19T11:09:04.613Z,42.61
2019-02-19T11:10:04.599Z,44.46
2019-02-19T11:11:04.585Z,45.29
2019-02-19T11:12:04.596Z,43.16
2019-02-19T11:13:04.562Z,43.71
2019-02-19T11:14:04.552Z,45.39
2019-02-19T11:15:04.542Z,44.21
2019-02-19T11:16:04.526Z,45.20
2019-02-19T11:17:04.518Z,45.81
2019-02-19T11:18:04.525Z,43.99
2019-02-19T11:19:04.494Z,44.71
2019-02-19T11:20:04.480Z,42.92
2019-02-19T11:21:04.468Z,44.40
2019-02-19T11:22:04.457Z,46.24
2019-02-19T11:23:04.471Z,43.52
2019-02-19T11:24:04.433Z,43.60
2019-02-19T11:25:04.421Z,45.73
2019-02-19T11:26:04.435Z,46.91
2019-02-19T11:27:04.404Z,47.18
2019-02-19T11:28:04.388Z,47.79
2019-02-19T11:29:04.400Z,49.46
2019-02-19T11:30:04.368Z,50.60
2019-02-19T11:31:04.356Z,50.42
2019-02-19T11:32:04.342Z,50.01
2019-02-19T11:33:04.331Z,48.99
2019-02-19T11:34:04.337Z,48.18
2019-02-19T11:35:04.329Z,49.13
2019-02-19T11:36:04.295Z,50.58
2019-02-19T11:37:04.287Z,49.76
2019-02-19T11:38:04.277Z,50.60
2019-02-19T11:39:04.281Z,50.85
2019-02-19T11:40:05.851Z,50.15
2019-02-19T11:41:04.237Z,47.38
2019-02-19T11:42:04.860Z,44.72
2019-02-19T11:43:04.218Z,45.86
2019-02-19T11:44:04.224Z,45.55
2019-02-19T11:45:04.244Z,48.07
2019-02-19T11:46:04.182Z,47.79
2019-02-19T11:49:54.718Z,45.04
2019-02-19T11:50:27.790Z,47.03
2019-02-19T11:51:27.780Z,46.44
2019-02-19T11:52:27.775Z,45.23
2019-02-19T12:05:41.051Z,48.40
2019-02-19T12:06:16.299Z,49.36
2019-02-19T12:07:16.282Z,49.46
2019-02-19T12:08:23.428Z,49.11
2019-02-19T12:09:16.263Z,49.46
2019-02-19T12:10:16.273Z,50.20
2019-02-19T12:11:16.238Z,51.77
2019-02-19T12:14:35.968Z,53.85
2019-02-19T12:15:35.975Z,54.69
2019-02-19T12:16:35.944Z,54.69
2019-02-19T12:17:35.929Z,55.87
2019-02-19T12:18:35.920Z,55.87
2019-02-19T12:19:35.930Z,55.66
2019-02-19T12:20:35.895Z,56.50
2019-02-19T12:21:35.882Z,57.42
2019-02-19T12:22:35.871Z,56.68
2019-02-19T12:23:35.859Z,56.48
2019-02-19T12:24:35.872Z,54.85
2019-02-19T12:46:51.436Z,56.71
2019-02-19T12:47:31.405Z,56.99
2019-02-19T12:48:24.471Z,56.91
2019-02-19T12:49:24.462Z,55.56
2019-02-19T12:50:24.468Z,55.43
2019-02-19T12:51:26.500Z,55.63
2019-02-19T12:52:24.423Z,55.63
2019-02-19T12:53:31.444Z,54.79
2019-02-19T12:54:24.403Z,54.39
2019-02-19T12:55:24.412Z,55.18
2019-02-19T12:56:24.379Z,54.90
2019-02-19T12:57:24.367Z,54.90
2019-02-19T12:58:24.356Z,55.00
2019-02-19T12:59:24.344Z,54.36
2019-02-19T13:00:24.353Z,54.26
2019-02-19T13:01:24.322Z,53.98
2019-02-19T13:02:24.310Z,55.07
2019-02-19T13:03:24.302Z,49.82
2019-02-19T13:04:24.299Z,50.48
2019-02-19T13:05:24.294Z,51.34
2019-02-19T13:06:24.263Z,52.10
2019-02-19T13:07:24.254Z,53.65
2019-02-19T13:08:24.241Z,54.36
2019-02-19T13:09:24.226Z,54.79
2019-02-19T13:10:24.239Z,54.69
2019-02-19T13:11:24.204Z,54.82
2019-02-19T13:12:24.192Z,54.92
2019-02-19T13:13:24.189Z,55.07
2019-02-19T13:14:24.169Z,53.65
2019-02-19T13:15:24.181Z,53.47
2019-02-19T13:16:24.145Z,52.66
2019-02-19T13:17:24.132Z,53.14
2019-02-19T13:18:24.128Z,54.49
2019-02-19T13:19:24.111Z,53.78
2019-02-19T13:20:24.124Z,52.20
2019-02-19T13:21:24.089Z,49.54
2019-02-19T13:22:24.077Z,49.26
2019-02-19T13:23:24.063Z,49.69
2019-02-19T13:24:24.052Z,49.48
2019-02-19T13:25:24.066Z,49.84
2019-02-19T13:26:24.027Z,48.13
2019-02-19T13:27:24.018Z,45.63
2019-02-19T13:28:24.009Z,45.61
2019-02-19T13:29:23.995Z,43.95